sensor_id;sensor_type;location;lat;lon;timestamp;P1;durP1;ratioP1;P2;durP2;ratioP2
938;SDS011;456;53.584;9.968;2024-02-16T00:01:01;2.47;;;2.27;;
938;SDS011;456;53.584;9.968;2024-02-16T00:03:28;4.27;;;2.00;;
938;SDS011;456;53.584;9.968;2024-02-16T00:05:54;1.87;;;1.77;;
938;SDS011;456;53.584;9.968;2024-02-16T00:08:20;2.80;;;2.50;;
938;SDS011;456;53.584;9.968;2024-02-16T00:10:46;2.57;;;2.37;;
938;SDS011;456;53.584;9.968;2024-02-16T00:13:12;2.60;;;2.33;;
938;SDS011;456;53.584;9.968;2024-02-16T00:15:38;3.40;;;2.70;;
938;SDS011;456;53.584;9.968;2024-02-16T00:18:05;3.90;;;2.60;;
938;SDS011;456;53.584;9.968;2024-02-16T00:20:31;2.27;;;2.07;;
938;SDS011;456;53.584;9.968;2024-02-16T00:22:57;2.63;;;2.13;;
938;SDS011;456;53.584;9.968;2024-02-16T00:25:23;2.37;;;2.17;;
938;SDS011;456;53.584;9.968;2024-02-16T00:27:49;2.50;;;2.30;;
938;SDS011;456;53.584;9.968;2024-02-16T00:30:18;2.60;;;2.40;;
938;SDS011;456;53.584;9.968;2024-02-16T00:32:44;3.47;;;2.20;;
938;SDS011;456;53.584;9.968;2024-02-16T00:35:12;4.03;;;2.57;;
938;SDS011;456;53.584;9.968;2024-02-16T00:37:41;2.60;;;2.40;;
938;SDS011;456;53.584;9.968;2024-02-16T00:40:07;3.03;;;2.67;;
938;SDS011;456;53.584;9.968;2024-02-16T00:42:33;2.63;;;2.20;;
938;SDS011;456;53.584;9.968;2024-02-16T00:44:59;2.33;;;2.13;;
938;SDS011;456;53.584;9.968;2024-02-16T00:47:28;2.93;;;2.60;;
938;SDS011;456;53.584;9.968;2024-02-16T00:49:54;2.97;;;2.17;;
938;SDS011;456;53.584;9.968;2024-02-16T00:52:20;2.53;;;1.50;;
938;SDS011;456;53.584;9.968;2024-02-16T00:54:47;2.67;;;2.20;;
938;SDS011;456;53.584;9.968;2024-02-16T00:57:13;2.37;;;2.00;;
938;SDS011;456;53.584;9.968;2024-02-16T00:59:39;3.67;;;1.93;;
938;SDS011;456;53.584;9.968;2024-02-16T01:02:05;2.73;;;2.07;;
938;SDS011;456;53.584;9.968;2024-02-16T01:04:31;2.30;;;2.00;;
938;SDS011;456;53.584;9.968;2024-02-16T01:06:58;2.40;;;1.73;;
938;SDS011;456;53.584;9.968;2024-02-16T01:09:24;2.47;;;2.27;;
938;SDS011;456;53.584;9.968;2024-02-16T01:11:49;3.60;;;2.00;;
938;SDS011;456;53.584;9.968;2024-02-16T01:14:15;3.50;;;2.30;;
938;SDS011;456;53.584;9.968;2024-02-16T01:16:40;1.60;;;1.50;;
938;SDS011;456;53.584;9.968;2024-02-16T01:19:06;4.90;;;2.10;;
938;SDS011;456;53.584;9.968;2024-02-16T01:21:32;2.40;;;2.03;;
938;SDS011;456;53.584;9.968;2024-02-16T01:23:58;2.30;;;2.10;;
938;SDS011;456;53.584;9.968;2024-02-16T01:26:26;1.70;;;1.60;;
938;SDS011;456;53.584;9.968;2024-02-16T01:28:52;2.63;;;2.13;;
938;SDS011;456;53.584;9.968;2024-02-16T01:31:17;2.20;;;2.00;;
938;SDS011;456;53.584;9.968;2024-02-16T01:33:43;2.30;;;2.10;;
938;SDS011;456;53.584;9.968;2024-02-16T01:36:09;1.97;;;1.83;;
938;SDS011;456;53.584;9.968;2024-02-16T01:38:35;2.73;;;1.93;;
938;SDS011;456;53.584;9.968;2024-02-16T01:41:01;2.70;;;2.13;;
938;SDS011;456;53.584;9.968;2024-02-16T01:43:27;2.97;;;1.87;;
938;SDS011;456;53.584;9.968;2024-02-16T01:45:52;2.17;;;1.97;;
938;SDS011;456;53.584;9.968;2024-02-16T01:48:18;3.33;;;1.83;;
938;SDS011;456;53.584;9.968;2024-02-16T01:50:45;2.10;;;2.00;;
938;SDS011;456;53.584;9.968;2024-02-16T01:53:13;2.57;;;2.37;;
938;SDS011;456;53.584;9.968;2024-02-16T01:55:43;2.27;;;2.07;;
938;SDS011;456;53.584;9.968;2024-02-16T01:58:10;3.53;;;1.97;;
938;SDS011;456;53.584;9.968;2024-02-16T02:00:36;2.20;;;2.00;;
938;SDS011;456;53.584;9.968;2024-02-16T02:03:02;2.57;;;2.37;;
938;SDS011;456;53.584;9.968;2024-02-16T02:05:29;2.07;;;1.87;;
938;SDS011;456;53.584;9.968;2024-02-16T02:07:56;2.03;;;1.80;;
938;SDS011;456;53.584;9.968;2024-02-16T02:10:22;2.10;;;1.90;;
938;SDS011;456;53.584;9.968;2024-02-16T02:12:48;2.70;;;1.93;;
938;SDS011;456;53.584;9.968;2024-02-16T02:15:13;2.30;;;2.10;;
938;SDS011;456;53.584;9.968;2024-02-16T02:17:40;2.20;;;2.00;;
938;SDS011;456;53.584;9.968;2024-02-16T02:20:06;2.67;;;2.03;;
938;SDS011;456;53.584;9.968;2024-02-16T02:22:35;2.90;;;2.00;;
938;SDS011;456;53.584;9.968;2024-02-16T02:25:04;3.83;;;2.37;;
938;SDS011;456;53.584;9.968;2024-02-16T02:27:30;2.50;;;2.30;;
938;SDS011;456;53.584;9.968;2024-02-16T02:29:56;3.37;;;2.17;;
938;SDS011;456;53.584;9.968;2024-02-16T02:32:21;2.73;;;2.33;;
938;SDS011;456;53.584;9.968;2024-02-16T02:34:47;2.33;;;2.13;;
938;SDS011;456;53.584;9.968;2024-02-16T02:37:13;3.43;;;2.20;;
938;SDS011;456;53.584;9.968;2024-02-16T02:39:38;9.13;;;2.73;;
938;SDS011;456;53.584;9.968;2024-02-16T02:42:05;3.13;;;1.97;;
938;SDS011;456;53.584;9.968;2024-02-16T02:44:31;3.10;;;2.20;;
938;SDS011;456;53.584;9.968;2024-02-16T02:46:57;2.40;;;2.10;;
938;SDS011;456;53.584;9.968;2024-02-16T02:49:23;2.20;;;2.00;;
938;SDS011;456;53.584;9.968;2024-02-16T02:51:48;1.90;;;1.70;;
938;SDS011;456;53.584;9.968;2024-02-16T02:54:14;2.50;;;2.30;;
938;SDS011;456;53.584;9.968;2024-02-16T02:56:40;2.83;;;2.00;;
938;SDS011;456;53.584;9.968;2024-02-16T02:59:05;2.20;;;2.00;;
938;SDS011;456;53.584;9.968;2024-02-16T03:01:31;2.67;;;2.40;;
938;SDS011;456;53.584;9.968;2024-02-16T03:03:57;1.77;;;1.67;;
938;SDS011;456;53.584;9.968;2024-02-16T03:06:25;2.40;;;2.20;;
938;SDS011;456;53.584;9.968;2024-02-16T03:08:50;2.20;;;2.00;;
938;SDS011;456;53.584;9.968;2024-02-16T03:11:16;2.70;;;2.10;;
938;SDS011;456;53.584;9.968;2024-02-16T03:13:42;1.67;;;1.57;;
938;SDS011;456;53.584;9.968;2024-02-16T03:16:08;2.10;;;1.90;;
938;SDS011;456;53.584;9.968;2024-02-16T03:18:33;2.30;;;2.10;;
938;SDS011;456;53.584;9.968;2024-02-16T03:20:59;2.27;;;2.07;;
938;SDS011;456;53.584;9.968;2024-02-16T03:23:28;2.40;;;1.93;;
938;SDS011;456;53.584;9.968;2024-02-16T03:25:54;2.30;;;2.10;;
938;SDS011;456;53.584;9.968;2024-02-16T03:28:19;2.23;;;2.03;;
938;SDS011;456;53.584;9.968;2024-02-16T03:30:45;2.37;;;2.03;;
938;SDS011;456;53.584;9.968;2024-02-16T03:33:11;2.50;;;1.87;;
938;SDS011;456;53.584;9.968;2024-02-16T03:35:38;2.37;;;2.17;;
938;SDS011;456;53.584;9.968;2024-02-16T03:38:05;2.80;;;2.20;;
938;SDS011;456;53.584;9.968;2024-02-16T03:40:31;2.53;;;1.90;;
938;SDS011;456;53.584;9.968;2024-02-16T03:42:57;2.30;;;1.83;;
938;SDS011;456;53.584;9.968;2024-02-16T03:45:23;2.13;;;1.93;;
938;SDS011;456;53.584;9.968;2024-02-16T03:47:49;2.10;;;1.90;;
938;SDS011;456;53.584;9.968;2024-02-16T03:50:17;2.27;;;2.00;;
938;SDS011;456;53.584;9.968;2024-02-16T03:52:43;2.50;;;1.80;;
938;SDS011;456;53.584;9.968;2024-02-16T03:55:09;2.03;;;1.83;;
938;SDS011;456;53.584;9.968;2024-02-16T03:57:35;3.30;;;2.53;;
938;SDS011;456;53.584;9.968;2024-02-16T04:00:01;2.67;;;2.20;;
938;SDS011;456;53.584;9.968;2024-02-16T04:02:27;2.57;;;2.07;;
938;SDS011;456;53.584;9.968;2024-02-16T04:04:53;2.33;;;2.00;;
938;SDS011;456;53.584;9.968;2024-02-16T04:07:18;2.50;;;1.87;;
938;SDS011;456;53.584;9.968;2024-02-16T04:09:44;2.27;;;2.00;;
938;SDS011;456;53.584;9.968;2024-02-16T04:12:10;2.17;;;2.00;;
938;SDS011;456;53.584;9.968;2024-02-16T04:14:35;1.90;;;1.60;;
938;SDS011;456;53.584;9.968;2024-02-16T04:17:01;2.10;;;1.90;;
938;SDS011;456;53.584;9.968;2024-02-16T04:19:27;3.17;;;2.07;;
938;SDS011;456;53.584;9.968;2024-02-16T04:21:53;2.40;;;2.20;;
938;SDS011;456;53.584;9.968;2024-02-16T04:24:18;1.77;;;1.67;;
938;SDS011;456;53.584;9.968;2024-02-16T04:26:44;1.87;;;1.77;;
938;SDS011;456;53.584;9.968;2024-02-16T04:29:10;2.70;;;2.50;;
938;SDS011;456;53.584;9.968;2024-02-16T04:31:38;3.50;;;2.10;;
938;SDS011;456;53.584;9.968;2024-02-16T04:34:05;2.20;;;2.00;;
938;SDS011;456;53.584;9.968;2024-02-16T04:36:30;2.30;;;2.10;;
938;SDS011;456;53.584;9.968;2024-02-16T04:38:56;2.10;;;1.90;;
938;SDS011;456;53.584;9.968;2024-02-16T04:41:22;2.53;;;2.33;;
938;SDS011;456;53.584;9.968;2024-02-16T04:43:47;2.80;;;2.00;;
938;SDS011;456;53.584;9.968;2024-02-16T04:46:13;2.30;;;2.10;;
938;SDS011;456;53.584;9.968;2024-02-16T04:48:42;2.43;;;2.23;;
938;SDS011;456;53.584;9.968;2024-02-16T04:51:08;2.03;;;1.90;;
938;SDS011;456;53.584;9.968;2024-02-16T04:53:35;4.70;;;2.27;;
938;SDS011;456;53.584;9.968;2024-02-16T04:56:01;2.10;;;1.70;;
938;SDS011;456;53.584;9.968;2024-02-16T04:58:27;2.20;;;2.00;;
938;SDS011;456;53.584;9.968;2024-02-16T05:00:53;2.37;;;2.07;;
938;SDS011;456;53.584;9.968;2024-02-16T05:03:18;2.17;;;1.80;;
938;SDS011;456;53.584;9.968;2024-02-16T05:05:44;2.70;;;2.03;;
938;SDS011;456;53.584;9.968;2024-02-16T05:08:10;2.13;;;1.73;;
938;SDS011;456;53.584;9.968;2024-02-16T05:10:36;2.00;;;1.80;;
938;SDS011;456;53.584;9.968;2024-02-16T05:13:01;2.23;;;1.83;;
938;SDS011;456;53.584;9.968;2024-02-16T05:15:27;1.90;;;1.80;;
938;SDS011;456;53.584;9.968;2024-02-16T05:17:53;2.30;;;1.70;;
938;SDS011;456;53.584;9.968;2024-02-16T05:20:18;2.20;;;2.10;;
938;SDS011;456;53.584;9.968;2024-02-16T05:22:45;2.60;;;2.00;;
938;SDS011;456;53.584;9.968;2024-02-16T05:25:15;2.53;;;1.80;;
938;SDS011;456;53.584;9.968;2024-02-16T05:27:42;3.13;;;2.23;;
938;SDS011;456;53.584;9.968;2024-02-16T05:30:09;2.63;;;1.87;;
938;SDS011;456;53.584;9.968;2024-02-16T05:32:37;2.07;;;1.67;;
938;SDS011;456;53.584;9.968;2024-02-16T05:35:04;1.90;;;1.60;;
938;SDS011;456;53.584;9.968;2024-02-16T05:37:36;2.20;;;2.00;;
938;SDS011;456;53.584;9.968;2024-02-16T05:40:05;1.63;;;1.53;;
938;SDS011;456;53.584;9.968;2024-02-16T05:42:53;3.40;;;2.07;;
938;SDS011;456;53.584;9.968;2024-02-16T05:45:19;2.87;;;2.27;;
938;SDS011;456;53.584;9.968;2024-02-16T05:47:48;3.47;;;2.27;;
938;SDS011;456;53.584;9.968;2024-02-16T05:50:15;2.60;;;1.73;;
938;SDS011;456;53.584;9.968;2024-02-16T05:52:41;2.27;;;1.90;;
938;SDS011;456;53.584;9.968;2024-02-16T05:55:08;1.90;;;1.80;;
938;SDS011;456;53.584;9.968;2024-02-16T05:57:34;3.17;;;1.80;;
938;SDS011;456;53.584;9.968;2024-02-16T06:00:02;4.43;;;2.27;;
938;SDS011;456;53.584;9.968;2024-02-16T06:02:30;2.20;;;2.00;;
938;SDS011;456;53.584;9.968;2024-02-16T06:04:59;4.20;;;1.70;;
938;SDS011;456;53.584;9.968;2024-02-16T06:07:25;3.27;;;2.77;;
938;SDS011;456;53.584;9.968;2024-02-16T06:09:51;3.33;;;1.83;;
938;SDS011;456;53.584;9.968;2024-02-16T06:12:17;3.30;;;2.00;;
938;SDS011;456;53.584;9.968;2024-02-16T06:14:43;1.93;;;1.80;;
938;SDS011;456;53.584;9.968;2024-02-16T06:17:08;2.00;;;1.80;;
938;SDS011;456;53.584;9.968;2024-02-16T06:19:35;2.30;;;2.10;;
938;SDS011;456;53.584;9.968;2024-02-16T06:22:00;2.10;;;1.90;;
938;SDS011;456;53.584;9.968;2024-02-16T06:24:26;3.57;;;2.00;;
938;SDS011;456;53.584;9.968;2024-02-16T06:26:52;1.90;;;1.67;;
938;SDS011;456;53.584;9.968;2024-02-16T06:29:19;2.20;;;1.97;;
938;SDS011;456;53.584;9.968;2024-02-16T06:31:45;2.10;;;1.90;;
938;SDS011;456;53.584;9.968;2024-02-16T06:34:12;2.20;;;2.00;;
938;SDS011;456;53.584;9.968;2024-02-16T06:36:38;3.87;;;1.73;;
938;SDS011;456;53.584;9.968;2024-02-16T06:39:04;2.27;;;1.80;;
938;SDS011;456;53.584;9.968;2024-02-16T06:41:30;2.03;;;1.83;;
938;SDS011;456;53.584;9.968;2024-02-16T06:43:55;2.57;;;1.90;;
938;SDS011;456;53.584;9.968;2024-02-16T06:46:21;2.23;;;1.83;;
938;SDS011;456;53.584;9.968;2024-02-16T06:48:47;1.80;;;1.67;;
938;SDS011;456;53.584;9.968;2024-02-16T06:51:13;2.20;;;1.87;;
938;SDS011;456;53.584;9.968;2024-02-16T06:53:38;1.73;;;1.63;;
938;SDS011;456;53.584;9.968;2024-02-16T06:56:04;1.70;;;1.60;;
938;SDS011;456;53.584;9.968;2024-02-16T06:58:30;3.57;;;2.10;;
938;SDS011;456;53.584;9.968;2024-02-16T07:00:55;1.70;;;1.43;;
938;SDS011;456;53.584;9.968;2024-02-16T07:03:23;1.70;;;1.53;;
938;SDS011;456;53.584;9.968;2024-02-16T07:05:48;1.63;;;1.53;;
938;SDS011;456;53.584;9.968;2024-02-16T07:08:14;1.70;;;1.60;;
938;SDS011;456;53.584;9.968;2024-02-16T07:10:40;1.97;;;1.70;;
938;SDS011;456;53.584;9.968;2024-02-16T07:13:05;1.80;;;1.70;;
938;SDS011;456;53.584;9.968;2024-02-16T07:15:31;1.83;;;1.60;;
938;SDS011;456;53.584;9.968;2024-02-16T07:17:57;1.60;;;1.50;;
938;SDS011;456;53.584;9.968;2024-02-16T07:20:23;2.50;;;1.83;;
938;SDS011;456;53.584;9.968;2024-02-16T07:22:48;1.60;;;1.47;;
938;SDS011;456;53.584;9.968;2024-02-16T07:25:16;2.40;;;1.80;;
938;SDS011;456;53.584;9.968;2024-02-16T07:27:42;2.10;;;1.70;;
938;SDS011;456;53.584;9.968;2024-02-16T07:30:08;1.60;;;1.50;;
938;SDS011;456;53.584;9.968;2024-02-16T07:32:36;1.60;;;1.40;;
938;SDS011;456;53.584;9.968;2024-02-16T07:35:01;1.57;;;1.40;;
938;SDS011;456;53.584;9.968;2024-02-16T07:37:28;1.97;;;1.30;;
938;SDS011;456;53.584;9.968;2024-02-16T07:39:54;2.10;;;1.60;;
938;SDS011;456;53.584;9.968;2024-02-16T07:42:19;2.20;;;1.70;;
938;SDS011;456;53.584;9.968;2024-02-16T07:44:45;2.10;;;1.90;;
938;SDS011;456;53.584;9.968;2024-02-16T07:47:11;1.67;;;1.57;;
938;SDS011;456;53.584;9.968;2024-02-16T07:49:37;2.07;;;1.70;;
938;SDS011;456;53.584;9.968;2024-02-16T07:52:04;1.40;;;1.30;;
938;SDS011;456;53.584;9.968;2024-02-16T07:54:30;1.77;;;1.40;;
938;SDS011;456;53.584;9.968;2024-02-16T07:56:56;2.00;;;1.80;;
938;SDS011;456;53.584;9.968;2024-02-16T07:59:24;1.87;;;1.60;;
938;SDS011;456;53.584;9.968;2024-02-16T08:01:50;1.43;;;1.20;;
938;SDS011;456;53.584;9.968;2024-02-16T08:04:16;2.80;;;2.00;;
938;SDS011;456;53.584;9.968;2024-02-16T08:06:41;1.43;;;1.33;;
938;SDS011;456;53.584;9.968;2024-02-16T08:09:07;2.20;;;2.00;;
938;SDS011;456;53.584;9.968;2024-02-16T08:11:32;1.70;;;1.60;;
938;SDS011;456;53.584;9.968;2024-02-16T08:13:58;1.70;;;1.43;;
938;SDS011;456;53.584;9.968;2024-02-16T08:16:26;1.30;;;1.20;;
938;SDS011;456;53.584;9.968;2024-02-16T08:18:52;1.60;;;1.50;;
938;SDS011;456;53.584;9.968;2024-02-16T08:21:18;1.80;;;1.27;;
938;SDS011;456;53.584;9.968;2024-02-16T08:23:44;2.13;;;1.93;;
938;SDS011;456;53.584;9.968;2024-02-16T08:26:09;1.50;;;1.40;;
938;SDS011;456;53.584;9.968;2024-02-16T08:28:35;1.97;;;1.47;;
938;SDS011;456;53.584;9.968;2024-02-16T08:31:01;2.73;;;1.80;;
938;SDS011;456;53.584;9.968;2024-02-16T08:33:26;1.60;;;1.50;;
938;SDS011;456;53.584;9.968;2024-02-16T08:35:52;4.77;;;1.73;;
938;SDS011;456;53.584;9.968;2024-02-16T08:38:17;2.10;;;1.90;;
938;SDS011;456;53.584;9.968;2024-02-16T08:40:43;2.90;;;1.90;;
938;SDS011;456;53.584;9.968;2024-02-16T08:43:09;4.60;;;2.10;;
938;SDS011;456;53.584;9.968;2024-02-16T08:45:34;2.70;;;1.83;;
938;SDS011;456;53.584;9.968;2024-02-16T08:48:00;2.30;;;1.83;;
938;SDS011;456;53.584;9.968;2024-02-16T08:50:28;2.10;;;1.77;;
938;SDS011;456;53.584;9.968;2024-02-16T08:52:54;1.93;;;1.80;;
938;SDS011;456;53.584;9.968;2024-02-16T08:55:20;2.60;;;1.90;;
938;SDS011;456;53.584;9.968;2024-02-16T08:57:46;1.40;;;1.30;;
938;SDS011;456;53.584;9.968;2024-02-16T09:00:11;3.90;;;1.60;;
938;SDS011;456;53.584;9.968;2024-02-16T09:02:37;6.23;;;1.80;;
938;SDS011;456;53.584;9.968;2024-02-16T09:05:03;2.87;;;1.60;;
938;SDS011;456;53.584;9.968;2024-02-16T09:07:30;2.13;;;1.50;;
938;SDS011;456;53.584;9.968;2024-02-16T09:09:55;2.00;;;1.90;;
938;SDS011;456;53.584;9.968;2024-02-16T09:12:21;2.50;;;1.80;;
938;SDS011;456;53.584;9.968;2024-02-16T09:14:47;2.00;;;1.30;;
938;SDS011;456;53.584;9.968;2024-02-16T09:17:13;2.70;;;1.70;;
938;SDS011;456;53.584;9.968;2024-02-16T09:19:39;1.70;;;1.60;;
938;SDS011;456;53.584;9.968;2024-02-16T09:22:04;2.30;;;1.77;;
938;SDS011;456;53.584;9.968;2024-02-16T09:24:31;1.80;;;1.50;;
938;SDS011;456;53.584;9.968;2024-02-16T09:26:57;1.83;;;1.70;;
938;SDS011;456;53.584;9.968;2024-02-16T09:29:28;1.87;;;1.60;;
938;SDS011;456;53.584;9.968;2024-02-16T09:31:54;1.80;;;1.60;;
938;SDS011;456;53.584;9.968;2024-02-16T09:34:19;2.07;;;1.43;;
938;SDS011;456;53.584;9.968;2024-02-16T09:36:45;1.30;;;1.20;;
938;SDS011;456;53.584;9.968;2024-02-16T09:39:11;2.90;;;1.70;;
938;SDS011;456;53.584;9.968;2024-02-16T09:41:36;1.20;;;1.10;;
938;SDS011;456;53.584;9.968;2024-02-16T09:44:07;1.70;;;1.60;;
938;SDS011;456;53.584;9.968;2024-02-16T09:46:32;3.00;;;1.60;;
938;SDS011;456;53.584;9.968;2024-02-16T09:49:01;1.60;;;1.40;;
938;SDS011;456;53.584;9.968;2024-02-16T09:51:28;1.57;;;1.47;;
938;SDS011;456;53.584;9.968;2024-02-16T09:53:54;2.13;;;1.57;;
938;SDS011;456;53.584;9.968;2024-02-16T09:56:22;2.20;;;1.60;;
938;SDS011;456;53.584;9.968;2024-02-16T09:58:51;1.93;;;1.60;;
938;SDS011;456;53.584;9.968;2024-02-16T10:01:20;2.03;;;1.57;;
938;SDS011;456;53.584;9.968;2024-02-16T10:03:48;1.80;;;1.70;;
938;SDS011;456;53.584;9.968;2024-02-16T10:06:14;2.20;;;1.60;;
938;SDS011;456;53.584;9.968;2024-02-16T10:08:56;1.73;;;1.63;;
938;SDS011;456;53.584;9.968;2024-02-16T10:11:22;1.67;;;1.57;;
938;SDS011;456;53.584;9.968;2024-02-16T10:13:59;1.83;;;1.53;;
938;SDS011;456;53.584;9.968;2024-02-16T10:16:27;1.50;;;1.40;;
938;SDS011;456;53.584;9.968;2024-02-16T10:18:54;1.83;;;1.73;;
938;SDS011;456;53.584;9.968;2024-02-16T10:21:28;2.00;;;1.50;;
938;SDS011;456;53.584;9.968;2024-02-16T10:24:01;2.20;;;2.00;;
938;SDS011;456;53.584;9.968;2024-02-16T10:26:33;2.37;;;1.80;;
938;SDS011;456;53.584;9.968;2024-02-16T10:29:02;1.63;;;1.30;;
938;SDS011;456;53.584;9.968;2024-02-16T10:31:30;1.73;;;1.37;;
938;SDS011;456;53.584;9.968;2024-02-16T10:33:58;1.30;;;1.13;;
938;SDS011;456;53.584;9.968;2024-02-16T10:36:26;1.57;;;1.40;;
938;SDS011;456;53.584;9.968;2024-02-16T10:38:55;1.37;;;1.20;;
938;SDS011;456;53.584;9.968;2024-02-16T10:41:24;1.60;;;1.30;;
938;SDS011;456;53.584;9.968;2024-02-16T10:43:55;1.90;;;1.47;;
938;SDS011;456;53.584;9.968;2024-02-16T10:46:21;1.57;;;1.47;;
938;SDS011;456;53.584;9.968;2024-02-16T10:48:48;1.30;;;1.20;;
938;SDS011;456;53.584;9.968;2024-02-16T10:51:14;2.30;;;1.63;;
938;SDS011;456;53.584;9.968;2024-02-16T10:53:45;1.87;;;1.73;;
938;SDS011;456;53.584;9.968;2024-02-16T10:56:12;2.70;;;1.57;;
938;SDS011;456;53.584;9.968;2024-02-16T10:58:38;1.73;;;1.63;;
938;SDS011;456;53.584;9.968;2024-02-16T11:01:09;1.93;;;1.63;;
938;SDS011;456;53.584;9.968;2024-02-16T11:03:37;1.43;;;1.30;;
938;SDS011;456;53.584;9.968;2024-02-16T11:06:17;2.30;;;1.90;;
938;SDS011;456;53.584;9.968;2024-02-16T11:08:43;1.77;;;1.67;;
938;SDS011;456;53.584;9.968;2024-02-16T11:11:08;1.80;;;1.70;;
938;SDS011;456;53.584;9.968;2024-02-16T11:13:38;1.90;;;1.80;;
938;SDS011;456;53.584;9.968;2024-02-16T11:16:07;3.33;;;1.70;;
938;SDS011;456;53.584;9.968;2024-02-16T11:18:37;2.43;;;1.87;;
938;SDS011;456;53.584;9.968;2024-02-16T11:21:05;1.70;;;1.60;;
938;SDS011;456;53.584;9.968;2024-02-16T11:23:32;1.93;;;1.73;;
938;SDS011;456;53.584;9.968;2024-02-16T11:26:04;1.80;;;1.70;;
938;SDS011;456;53.584;9.968;2024-02-16T11:28:34;2.53;;;2.10;;
938;SDS011;456;53.584;9.968;2024-02-16T11:31:00;3.00;;;1.57;;
938;SDS011;456;53.584;9.968;2024-02-16T11:33:27;1.67;;;1.57;;
938;SDS011;456;53.584;9.968;2024-02-16T11:35:54;1.97;;;1.77;;
938;SDS011;456;53.584;9.968;2024-02-16T11:38:21;1.47;;;1.30;;
938;SDS011;456;53.584;9.968;2024-02-16T11:40:56;2.40;;;1.70;;
938;SDS011;456;53.584;9.968;2024-02-16T11:43:24;2.00;;;1.67;;
938;SDS011;456;53.584;9.968;2024-02-16T11:45:50;1.70;;;1.60;;
938;SDS011;456;53.584;9.968;2024-02-16T11:48:19;1.73;;;1.63;;
938;SDS011;456;53.584;9.968;2024-02-16T11:50:47;1.50;;;1.27;;
938;SDS011;456;53.584;9.968;2024-02-16T11:53:17;1.40;;;1.30;;
938;SDS011;456;53.584;9.968;2024-02-16T11:55:47;2.00;;;1.40;;
938;SDS011;456;53.584;9.968;2024-02-16T11:58:15;1.60;;;1.50;;
938;SDS011;456;53.584;9.968;2024-02-16T12:00:43;1.70;;;1.60;;
938;SDS011;456;53.584;9.968;2024-02-16T12:03:08;2.17;;;1.77;;
938;SDS011;456;53.584;9.968;2024-02-16T12:05:34;1.73;;;1.40;;
938;SDS011;456;53.584;9.968;2024-02-16T12:07:59;1.73;;;1.60;;
938;SDS011;456;53.584;9.968;2024-02-16T12:10:25;1.73;;;1.50;;
938;SDS011;456;53.584;9.968;2024-02-16T12:12:52;1.97;;;1.73;;
938;SDS011;456;53.584;9.968;2024-02-16T12:15:18;2.00;;;1.80;;
938;SDS011;456;53.584;9.968;2024-02-16T12:17:45;1.60;;;1.50;;
938;SDS011;456;53.584;9.968;2024-02-16T12:20:11;3.63;;;1.97;;
938;SDS011;456;53.584;9.968;2024-02-16T12:22:40;1.80;;;1.70;;
938;SDS011;456;53.584;9.968;2024-02-16T12:25:06;1.97;;;1.77;;
938;SDS011;456;53.584;9.968;2024-02-16T12:27:32;2.50;;;2.30;;
938;SDS011;456;53.584;9.968;2024-02-16T12:29:58;1.70;;;1.60;;
938;SDS011;456;53.584;9.968;2024-02-16T12:32:31;2.03;;;1.90;;
938;SDS011;456;53.584;9.968;2024-02-16T12:34:56;3.13;;;1.93;;
938;SDS011;456;53.584;9.968;2024-02-16T12:37:22;1.60;;;1.50;;
938;SDS011;456;53.584;9.968;2024-02-16T12:39:48;2.30;;;1.50;;
938;SDS011;456;53.584;9.968;2024-02-16T12:42:14;2.00;;;1.80;;
938;SDS011;456;53.584;9.968;2024-02-16T12:44:39;1.97;;;1.80;;
938;SDS011;456;53.584;9.968;2024-02-16T12:47:06;3.17;;;2.37;;
938;SDS011;456;53.584;9.968;2024-02-16T12:49:31;2.00;;;1.90;;
938;SDS011;456;53.584;9.968;2024-02-16T12:51:57;1.63;;;1.53;;
938;SDS011;456;53.584;9.968;2024-02-16T12:54:22;2.90;;;2.30;;
938;SDS011;456;53.584;9.968;2024-02-16T12:56:48;2.77;;;2.00;;
938;SDS011;456;53.584;9.968;2024-02-16T12:59:15;1.80;;;1.70;;
938;SDS011;456;53.584;9.968;2024-02-16T13:01:41;2.00;;;1.80;;
938;SDS011;456;53.584;9.968;2024-02-16T13:04:08;6.40;;;2.40;;
938;SDS011;456;53.584;9.968;2024-02-16T13:06:33;3.73;;;2.43;;
938;SDS011;456;53.584;9.968;2024-02-16T13:08:59;2.57;;;2.10;;
938;SDS011;456;53.584;9.968;2024-02-16T13:11:25;2.17;;;2.00;;
938;SDS011;456;53.584;9.968;2024-02-16T13:13:50;1.90;;;1.80;;
938;SDS011;456;53.584;9.968;2024-02-16T13:16:16;2.87;;;2.57;;
938;SDS011;456;53.584;9.968;2024-02-16T13:18:42;2.17;;;1.97;;
938;SDS011;456;53.584;9.968;2024-02-16T13:21:08;2.27;;;2.07;;
938;SDS011;456;53.584;9.968;2024-02-16T13:23:34;2.50;;;2.20;;
938;SDS011;456;53.584;9.968;2024-02-16T13:25:59;2.53;;;2.23;;
938;SDS011;456;53.584;9.968;2024-02-16T13:28:25;1.87;;;1.67;;
938;SDS011;456;53.584;9.968;2024-02-16T13:30:50;2.50;;;2.30;;
938;SDS011;456;53.584;9.968;2024-02-16T13:33:16;2.30;;;1.97;;
938;SDS011;456;53.584;9.968;2024-02-16T13:35:42;2.37;;;2.13;;
938;SDS011;456;53.584;9.968;2024-02-16T13:38:07;2.80;;;2.20;;
938;SDS011;456;53.584;9.968;2024-02-16T13:40:33;2.03;;;1.90;;
938;SDS011;456;53.584;9.968;2024-02-16T13:43:00;2.50;;;2.30;;
938;SDS011;456;53.584;9.968;2024-02-16T13:45:35;2.60;;;2.33;;
938;SDS011;456;53.584;9.968;2024-02-16T13:48:16;2.63;;;2.40;;
938;SDS011;456;53.584;9.968;2024-02-16T13:50:46;2.40;;;2.20;;
938;SDS011;456;53.584;9.968;2024-02-16T13:53:13;2.43;;;2.23;;
938;SDS011;456;53.584;9.968;2024-02-16T13:55:39;4.33;;;2.40;;
938;SDS011;456;53.584;9.968;2024-02-16T13:58:06;2.90;;;2.63;;
938;SDS011;456;53.584;9.968;2024-02-16T14:00:31;2.73;;;1.97;;
938;SDS011;456;53.584;9.968;2024-02-16T14:02:57;3.67;;;2.50;;
938;SDS011;456;53.584;9.968;2024-02-16T14:05:22;2.47;;;2.27;;
938;SDS011;456;53.584;9.968;2024-02-16T14:07:50;3.13;;;2.27;;
938;SDS011;456;53.584;9.968;2024-02-16T14:10:16;2.90;;;2.60;;
938;SDS011;456;53.584;9.968;2024-02-16T14:12:42;3.43;;;2.40;;
938;SDS011;456;53.584;9.968;2024-02-16T14:15:09;2.80;;;2.60;;
938;SDS011;456;53.584;9.968;2024-02-16T14:17:40;2.87;;;2.57;;
938;SDS011;456;53.584;9.968;2024-02-16T14:20:08;2.83;;;2.10;;
938;SDS011;456;53.584;9.968;2024-02-16T14:22:35;2.60;;;2.40;;
938;SDS011;456;53.584;9.968;2024-02-16T14:25:00;3.20;;;2.90;;
938;SDS011;456;53.584;9.968;2024-02-16T14:27:26;3.37;;;2.73;;
938;SDS011;456;53.584;9.968;2024-02-16T14:29:51;2.83;;;2.53;;
938;SDS011;456;53.584;9.968;2024-02-16T14:32:17;3.53;;;2.93;;
938;SDS011;456;53.584;9.968;2024-02-16T14:34:42;3.00;;;2.70;;
938;SDS011;456;53.584;9.968;2024-02-16T14:37:09;3.60;;;2.60;;
938;SDS011;456;53.584;9.968;2024-02-16T14:39:35;2.80;;;2.60;;
938;SDS011;456;53.584;9.968;2024-02-16T14:42:00;3.13;;;2.57;;
938;SDS011;456;53.584;9.968;2024-02-16T14:44:26;6.20;;;3.03;;
938;SDS011;456;53.584;9.968;2024-02-16T14:46:52;2.90;;;2.70;;
938;SDS011;456;53.584;9.968;2024-02-16T14:49:17;2.37;;;2.17;;
938;SDS011;456;53.584;9.968;2024-02-16T14:51:46;4.07;;;2.90;;
938;SDS011;456;53.584;9.968;2024-02-16T14:54:12;2.80;;;2.50;;
938;SDS011;456;53.584;9.968;2024-02-16T14:56:38;2.70;;;2.50;;
938;SDS011;456;53.584;9.968;2024-02-16T14:59:04;2.97;;;2.77;;
938;SDS011;456;53.584;9.968;2024-02-16T15:01:30;2.70;;;2.50;;
938;SDS011;456;53.584;9.968;2024-02-16T15:03:59;3.40;;;3.00;;
938;SDS011;456;53.584;9.968;2024-02-16T15:06:24;3.97;;;2.63;;
938;SDS011;456;53.584;9.968;2024-02-16T15:08:50;2.87;;;2.67;;
938;SDS011;456;53.584;9.968;2024-02-16T15:11:16;3.13;;;2.83;;
938;SDS011;456;53.584;9.968;2024-02-16T15:13:42;2.73;;;2.50;;
938;SDS011;456;53.584;9.968;2024-02-16T15:16:08;2.60;;;2.40;;
938;SDS011;456;53.584;9.968;2024-02-16T15:18:34;4.93;;;2.87;;
938;SDS011;456;53.584;9.968;2024-02-16T15:21:00;4.70;;;3.17;;
938;SDS011;456;53.584;9.968;2024-02-16T15:23:25;3.47;;;3.17;;
938;SDS011;456;53.584;9.968;2024-02-16T15:25:52;3.00;;;2.70;;
938;SDS011;456;53.584;9.968;2024-02-16T15:28:17;3.87;;;2.80;;
938;SDS011;456;53.584;9.968;2024-02-16T15:30:43;3.67;;;3.13;;
938;SDS011;456;53.584;9.968;2024-02-16T15:33:09;2.87;;;2.57;;
938;SDS011;456;53.584;9.968;2024-02-16T15:35:36;3.57;;;2.93;;
938;SDS011;456;53.584;9.968;2024-02-16T15:38:02;3.83;;;3.50;;
938;SDS011;456;53.584;9.968;2024-02-16T15:40:27;3.40;;;2.73;;